VOI1145 MMSD-MMGL
Flight info
| Callsign | VOI1145 |
|---|---|
| Flight time | 1h 17m |
| Altitude | 31000 |
| Route | ILIGA1A ILIGA UJ48 PVR UJ14 KASUP KASUP1B |
| Aircraft | A20N/M-SDE2E3FGHIRWXY/LB1 |
Departure
| Time | 2026-04-21 01:25 |
|---|---|
| Airport | Los Cabos International Airport (MMSD) |
Arrival
| Time | 2026-04-21 02:42 |
|---|---|
| Airport | Guadalajara International Airport (MMGL) |
| Time | Latitude | Longitude | Altitude | Speed | Heading |
|---|---|---|---|---|---|
| 2026-04-21 01:07 | 23.15781 | -109.71783 | 364 ft | 0 kts | 84° |
| 2026-04-21 01:14 | 23.15779 | -109.71797 | 367 ft | 2 kts | 78° |
| 2026-04-21 01:14 | 23.15776 | -109.71814 | 364 ft | 2 kts | 70° |
| 2026-04-21 01:14 | 23.15769 | -109.71831 | 366 ft | 2 kts | 52° |
| 2026-04-21 01:14 | 23.15757 | -109.71843 | 364 ft | 2 kts | 22° |
| 2026-04-21 01:15 | 23.15741 | -109.71847 | 364 ft | 2 kts | 359° |
| 2026-04-21 01:15 | 23.15733 | -109.71846 | 364 ft | 0 kts | 355° |
| 2026-04-21 01:15 | 23.15732 | -109.71846 | 364 ft | 0 kts | 355° |
| 2026-04-21 01:18 | 23.15736 | -109.71847 | 364 ft | 2 kts | 355° |
| 2026-04-21 01:18 | 23.15755 | -109.71848 | 364 ft | 4 kts | 355° |
| 2026-04-21 01:19 | 23.15789 | -109.71852 | 368 ft | 6 kts | 355° |
| 2026-04-21 01:19 | 23.15841 | -109.71857 | 368 ft | 8 kts | 354° |
| 2026-04-21 01:19 | 23.15861 | -109.71903 | 367 ft | 8 kts | 265° |
| 2026-04-21 01:19 | 23.15883 | -109.71945 | 368 ft | 7 kts | 338° |
| 2026-04-21 01:20 | 23.15939 | -109.71952 | 369 ft | 10 kts | 354° |
| 2026-04-21 01:20 | 23.16014 | -109.71961 | 367 ft | 12 kts | 354° |
| 2026-04-21 01:20 | 23.16103 | -109.71971 | 370 ft | 13 kts | 354° |
| 2026-04-21 01:20 | 23.16197 | -109.71981 | 372 ft | 14 kts | 354° |
| 2026-04-21 01:21 | 23.16287 | -109.71992 | 377 ft | 12 kts | 354° |
| 2026-04-21 01:21 | 23.16365 | -109.72001 | 382 ft | 10 kts | 354° |
| 2026-04-21 01:21 | 23.16432 | -109.72008 | 385 ft | 9 kts | 354° |
| 2026-04-21 01:21 | 23.16507 | -109.72016 | 389 ft | 12 kts | 354° |
| 2026-04-21 01:22 | 23.16562 | -109.72048 | 391 ft | 11 kts | 287° |
| 2026-04-21 01:22 | 23.16554 | -109.72133 | 391 ft | 0 kts | 264° |
| 2026-04-21 01:22 | 23.16554 | -109.72134 | 391 ft | 1 kts | 264° |
| 2026-04-21 01:22 | 23.16552 | -109.72151 | 391 ft | 4 kts | 264° |
| 2026-04-21 01:23 | 23.16549 | -109.72188 | 391 ft | 6 kts | 264° |
| 2026-04-21 01:23 | 23.16525 | -109.72225 | 391 ft | 7 kts | 193° |
| 2026-04-21 01:23 | 23.16479 | -109.72219 | 390 ft | 0 kts | 175° |
| 2026-04-21 01:23 | 23.16467 | -109.72218 | 390 ft | 4 kts | 175° |
| 2026-04-21 01:24 | 23.16347 | -109.72205 | 387 ft | 42 kts | 173° |
| 2026-04-21 01:24 | 23.15831 | -109.72146 | 376 ft | 104 kts | 174° |
| 2026-04-21 01:24 | 23.14935 | -109.72037 | 379 ft | 148 kts | 171° |
| 2026-04-21 01:24 | 23.13935 | -109.71905 | 894 ft | 144 kts | 171° |
| 2026-04-21 01:25 | 23.12929 | -109.71782 | 1395 ft | 147 kts | 172° |
| 2026-04-21 01:25 | 23.11905 | -109.71617 | 1889 ft | 149 kts | 169° |
| 2026-04-21 01:25 | 23.10854 | -109.71387 | 2221 ft | 165 kts | 167° |
| 2026-04-21 01:25 | 23.09689 | -109.70943 | 2511 ft | 186 kts | 152° |
| 2026-04-21 01:26 | 23.08601 | -109.70084 | 2848 ft | 207 kts | 136° |
| 2026-04-21 01:26 | 23.07598 | -109.68842 | 3203 ft | 232 kts | 127° |
| 2026-04-21 01:26 | 23.06630 | -109.67324 | 3596 ft | 255 kts | 123° |
| 2026-04-21 01:26 | 23.05635 | -109.65624 | 4105 ft | 276 kts | 123° |
| 2026-04-21 01:27 | 23.04602 | -109.63839 | 4954 ft | 280 kts | 123° |
| 2026-04-21 01:27 | 23.03558 | -109.62050 | 5881 ft | 281 kts | 125° |
| 2026-04-21 01:27 | 23.02502 | -109.60259 | 6528 ft | 283 kts | 126° |
| 2026-04-21 01:27 | 23.01430 | -109.58462 | 6808 ft | 284 kts | 126° |
| 2026-04-21 01:28 | 23.00351 | -109.56660 | 6921 ft | 285 kts | 126° |
| 2026-04-21 01:28 | 22.99270 | -109.54855 | 6956 ft | 285 kts | 126° |
| 2026-04-21 01:28 | 22.98185 | -109.53049 | 7063 ft | 287 kts | 126° |
| 2026-04-21 01:28 | 22.97088 | -109.51224 | 7614 ft | 289 kts | 126° |
| 2026-04-21 01:29 | 22.95995 | -109.49404 | 8534 ft | 287 kts | 127° |
| 2026-04-21 01:29 | 22.94912 | -109.47601 | 9332 ft | 291 kts | 127° |
| 2026-04-21 01:29 | 22.93796 | -109.45745 | 10107 ft | 295 kts | 127° |
| 2026-04-21 01:29 | 22.92637 | -109.43824 | 10439 ft | 315 kts | 127° |
| 2026-04-21 01:30 | 22.91389 | -109.41760 | 10640 ft | 338 kts | 126° |
| 2026-04-21 01:30 | 22.90075 | -109.39578 | 11086 ft | 349 kts | 126° |
| 2026-04-21 01:30 | 22.88741 | -109.37360 | 11752 ft | 353 kts | 127° |
| 2026-04-21 01:30 | 22.87259 | -109.35259 | 12399 ft | 357 kts | 132° |
| 2026-04-21 01:31 | 22.85685 | -109.33158 | 13067 ft | 361 kts | 132° |
| 2026-04-21 01:31 | 22.84094 | -109.31028 | 13706 ft | 366 kts | 132° |
| 2026-04-21 01:31 | 22.82480 | -109.28865 | 14280 ft | 371 kts | 132° |
| 2026-04-21 01:31 | 22.80840 | -109.26668 | 14851 ft | 376 kts | 132° |
| 2026-04-21 01:32 | 22.79189 | -109.24454 | 15480 ft | 378 kts | 132° |
| 2026-04-21 01:32 | 22.77537 | -109.22241 | 16253 ft | 376 kts | 132° |
| 2026-04-21 01:32 | 22.75900 | -109.20047 | 17030 ft | 374 kts | 132° |
| 2026-04-21 01:32 | 22.74270 | -109.17865 | 17837 ft | 370 kts | 132° |
| 2026-04-21 01:33 | 22.72662 | -109.15713 | 18593 ft | 367 kts | 132° |
| 2026-04-21 01:33 | 22.71077 | -109.13595 | 19300 ft | 363 kts | 132° |
| 2026-04-21 01:33 | 22.69490 | -109.11476 | 19984 ft | 359 kts | 132° |
| 2026-04-21 01:33 | 22.67913 | -109.09372 | 20534 ft | 363 kts | 132° |
| 2026-04-21 01:34 | 22.66283 | -109.07203 | 20669 ft | 379 kts | 132° |
| 2026-04-21 01:34 | 22.64590 | -109.04948 | 20811 ft | 394 kts | 132° |
| 2026-04-21 01:34 | 22.62828 | -109.02600 | 20948 ft | 408 kts | 132° |
| 2026-04-21 01:34 | 22.61005 | -109.00169 | 21084 ft | 421 kts | 132° |
| 2026-04-21 01:35 | 22.59165 | -108.97713 | 21338 ft | 430 kts | 131° |
| 2026-04-21 01:35 | 22.57267 | -108.95180 | 21885 ft | 431 kts | 131° |
| 2026-04-21 01:35 | 22.55370 | -108.92649 | 22326 ft | 435 kts | 131° |
| 2026-04-21 01:35 | 22.53454 | -108.90097 | 22774 ft | 438 kts | 131° |
| 2026-04-21 01:36 | 22.51521 | -108.87524 | 23233 ft | 441 kts | 131° |
| 2026-04-21 01:36 | 22.49578 | -108.84939 | 23655 ft | 445 kts | 131° |
| 2026-04-21 01:36 | 22.47611 | -108.82324 | 24035 ft | 447 kts | 131° |
| 2026-04-21 01:36 | 22.45664 | -108.79736 | 24403 ft | 450 kts | 131° |
| 2026-04-21 01:37 | 22.43681 | -108.77102 | 24780 ft | 454 kts | 132° |
| 2026-04-21 01:37 | 22.41679 | -108.74443 | 25121 ft | 457 kts | 132° |
| 2026-04-21 01:37 | 22.39657 | -108.71762 | 25495 ft | 460 kts | 132° |
| 2026-04-21 01:37 | 22.37631 | -108.69073 | 25849 ft | 463 kts | 131° |
| 2026-04-21 01:38 | 22.35784 | -108.66248 | 26197 ft | 468 kts | 123° |
| 2026-04-21 01:38 | 22.34230 | -108.63134 | 26547 ft | 472 kts | 118° |
| 2026-04-21 01:38 | 22.32745 | -108.59956 | 26874 ft | 475 kts | 118° |
| 2026-04-21 01:38 | 22.31249 | -108.56771 | 27286 ft | 476 kts | 118° |
| 2026-04-21 01:39 | 22.29744 | -108.53577 | 27602 ft | 479 kts | 118° |
| 2026-04-21 01:39 | 22.28224 | -108.50354 | 27925 ft | 481 kts | 118° |
| 2026-04-21 01:39 | 22.26696 | -108.47118 | 28252 ft | 484 kts | 118° |
| 2026-04-21 01:39 | 22.25162 | -108.43871 | 28571 ft | 487 kts | 118° |
| 2026-04-21 01:40 | 22.23638 | -108.40646 | 28846 ft | 490 kts | 119° |
| 2026-04-21 01:40 | 22.22083 | -108.37360 | 29138 ft | 493 kts | 119° |
| 2026-04-21 01:40 | 22.20519 | -108.34057 | 29466 ft | 495 kts | 119° |
| 2026-04-21 01:40 | 22.18947 | -108.30740 | 29770 ft | 497 kts | 119° |
| 2026-04-21 01:41 | 22.17365 | -108.27403 | 30075 ft | 500 kts | 119° |
| 2026-04-21 01:41 | 22.15774 | -108.24050 | 30368 ft | 501 kts | 119° |
| 2026-04-21 01:41 | 22.14184 | -108.20698 | 30675 ft | 503 kts | 119° |
| 2026-04-21 01:41 | 22.12582 | -108.17327 | 30908 ft | 504 kts | 119° |
| 2026-04-21 01:42 | 22.09383 | -108.10598 | 30985 ft | 503 kts | 119° |
| 2026-04-21 01:42 | 22.06217 | -108.03947 | 30983 ft | 498 kts | 119° |
| 2026-04-21 01:43 | 22.03045 | -107.97294 | 30984 ft | 499 kts | 119° |
| 2026-04-21 01:43 | 21.99869 | -107.90642 | 30989 ft | 498 kts | 119° |
| 2026-04-21 01:44 | 21.96693 | -107.83997 | 30980 ft | 498 kts | 119° |
| 2026-04-21 01:44 | 21.93533 | -107.77395 | 30980 ft | 498 kts | 119° |
| 2026-04-21 01:45 | 21.90347 | -107.70747 | 30983 ft | 499 kts | 119° |
| 2026-04-21 01:45 | 21.87161 | -107.64107 | 30982 ft | 499 kts | 119° |
| 2026-04-21 01:46 | 21.84510 | -107.58588 | 30986 ft | 499 kts | 119° |
| 2026-04-21 01:46 | 21.81314 | -107.51945 | 30991 ft | 499 kts | 119° |
| 2026-04-21 01:47 | 21.78116 | -107.45312 | 31001 ft | 499 kts | 119° |
| 2026-04-21 01:47 | 21.74941 | -107.38732 | 30997 ft | 499 kts | 119° |
| 2026-04-21 01:48 | 21.71740 | -107.32099 | 30993 ft | 499 kts | 119° |
| 2026-04-21 01:48 | 21.68536 | -107.25470 | 30993 ft | 498 kts | 119° |
| 2026-04-21 01:49 | 21.65338 | -107.18862 | 30992 ft | 498 kts | 119° |
| 2026-04-21 01:49 | 21.62129 | -107.12239 | 30991 ft | 498 kts | 120° |
| 2026-04-21 01:50 | 21.58939 | -107.05665 | 30993 ft | 498 kts | 120° |
| 2026-04-21 01:50 | 21.55732 | -106.99065 | 30999 ft | 497 kts | 119° |
| 2026-04-21 01:51 | 21.52525 | -106.92471 | 30999 ft | 497 kts | 119° |
| 2026-04-21 01:51 | 21.49341 | -106.85933 | 30994 ft | 496 kts | 119° |
| 2026-04-21 01:52 | 21.44531 | -106.76072 | 30991 ft | 495 kts | 119° |
| 2026-04-21 01:53 | 21.41344 | -106.69548 | 30985 ft | 495 kts | 119° |
| 2026-04-21 01:53 | 21.38136 | -106.62991 | 30989 ft | 495 kts | 119° |
| 2026-04-21 01:54 | 21.34954 | -106.56492 | 30986 ft | 495 kts | 119° |
| 2026-04-21 01:54 | 21.31752 | -106.49963 | 30985 ft | 494 kts | 119° |
| 2026-04-21 01:55 | 21.28543 | -106.43428 | 30989 ft | 494 kts | 119° |
| 2026-04-21 01:55 | 21.25351 | -106.36934 | 30990 ft | 494 kts | 119° |
| 2026-04-21 01:56 | 21.22143 | -106.30414 | 30989 ft | 494 kts | 119° |
| 2026-04-21 01:56 | 21.18932 | -106.23899 | 30988 ft | 494 kts | 119° |
| 2026-04-21 01:57 | 21.15739 | -106.17427 | 30990 ft | 494 kts | 119° |
| 2026-04-21 01:57 | 21.12520 | -106.10910 | 30987 ft | 494 kts | 119° |
| 2026-04-21 01:58 | 21.09302 | -106.04402 | 30983 ft | 494 kts | 119° |
| 2026-04-21 01:58 | 21.06105 | -105.97941 | 30986 ft | 493 kts | 119° |
| 2026-04-21 01:59 | 21.02885 | -105.91443 | 30980 ft | 493 kts | 119° |
| 2026-04-21 01:59 | 20.99686 | -105.85006 | 30986 ft | 492 kts | 119° |
| 2026-04-21 02:00 | 20.96441 | -105.78480 | 30981 ft | 492 kts | 119° |
| 2026-04-21 02:00 | 20.93249 | -105.72064 | 30977 ft | 492 kts | 119° |
| 2026-04-21 02:01 | 20.90025 | -105.65596 | 30973 ft | 491 kts | 119° |
| 2026-04-21 02:01 | 20.86808 | -105.59146 | 30975 ft | 491 kts | 119° |
| 2026-04-21 02:02 | 20.83606 | -105.52727 | 30980 ft | 491 kts | 119° |
| 2026-04-21 02:02 | 20.80393 | -105.46297 | 30983 ft | 490 kts | 119° |
| 2026-04-21 02:03 | 20.77172 | -105.39857 | 30994 ft | 490 kts | 119° |
| 2026-04-21 02:03 | 20.73953 | -105.33431 | 31005 ft | 491 kts | 119° |
| 2026-04-21 02:04 | 20.70805 | -105.26988 | 31009 ft | 491 kts | 114° |
| 2026-04-21 02:04 | 20.68907 | -105.20006 | 31008 ft | 491 kts | 98° |
| 2026-04-21 02:05 | 20.68279 | -105.12747 | 31007 ft | 491 kts | 95° |
| 2026-04-21 02:05 | 20.67685 | -105.05508 | 31007 ft | 491 kts | 95° |
| 2026-04-21 02:06 | 20.67078 | -104.98201 | 31004 ft | 491 kts | 95° |
| 2026-04-21 02:06 | 20.66475 | -104.90972 | 30986 ft | 492 kts | 95° |
| 2026-04-21 02:06 | 20.66170 | -104.87322 | 30775 ft | 493 kts | 95° |
| 2026-04-21 02:07 | 20.65865 | -104.83690 | 30504 ft | 490 kts | 95° |
| 2026-04-21 02:07 | 20.65559 | -104.80062 | 29830 ft | 491 kts | 95° |
| 2026-04-21 02:07 | 20.65258 | -104.76489 | 29266 ft | 486 kts | 95° |
| 2026-04-21 02:07 | 20.64951 | -104.72863 | 28668 ft | 481 kts | 95° |
| 2026-04-21 02:08 | 20.64656 | -104.69370 | 28101 ft | 476 kts | 95° |
| 2026-04-21 02:08 | 20.64358 | -104.65862 | 27529 ft | 471 kts | 95° |
| 2026-04-21 02:08 | 20.64062 | -104.62394 | 26971 ft | 467 kts | 95° |
| 2026-04-21 02:08 | 20.63768 | -104.58950 | 26393 ft | 463 kts | 95° |
| 2026-04-21 02:09 | 20.63476 | -104.55527 | 25779 ft | 461 kts | 95° |
| 2026-04-21 02:09 | 20.63185 | -104.52140 | 25231 ft | 456 kts | 95° |
| 2026-04-21 02:09 | 20.62896 | -104.48772 | 24664 ft | 453 kts | 95° |
| 2026-04-21 02:09 | 20.62611 | -104.45437 | 24231 ft | 447 kts | 95° |
| 2026-04-21 02:10 | 20.62327 | -104.42153 | 23897 ft | 442 kts | 95° |
| 2026-04-21 02:10 | 20.62045 | -104.38934 | 23671 ft | 439 kts | 95° |
| 2026-04-21 02:10 | 20.61759 | -104.35675 | 23479 ft | 443 kts | 95° |
| 2026-04-21 02:10 | 20.61471 | -104.32403 | 23289 ft | 442 kts | 95° |
| 2026-04-21 02:11 | 20.61032 | -104.29163 | 23089 ft | 438 kts | 103° |
| 2026-04-21 02:11 | 20.60178 | -104.26047 | 22912 ft | 436 kts | 111° |
| 2026-04-21 02:11 | 20.58933 | -104.23100 | 22714 ft | 434 kts | 118° |
| 2026-04-21 02:11 | 20.57535 | -104.20238 | 22354 ft | 433 kts | 118° |
| 2026-04-21 02:12 | 20.56165 | -104.17408 | 22168 ft | 426 kts | 118° |
| 2026-04-21 02:12 | 20.54808 | -104.14598 | 21992 ft | 425 kts | 118° |
| 2026-04-21 02:12 | 20.53472 | -104.11834 | 21822 ft | 423 kts | 118° |
| 2026-04-21 02:12 | 20.52125 | -104.09044 | 21638 ft | 422 kts | 118° |
| 2026-04-21 02:13 | 20.50777 | -104.06256 | 21456 ft | 421 kts | 118° |
| 2026-04-21 02:13 | 20.49443 | -104.03501 | 21276 ft | 419 kts | 118° |
| 2026-04-21 02:13 | 20.48106 | -104.00741 | 21101 ft | 417 kts | 118° |
| 2026-04-21 02:13 | 20.46785 | -103.98015 | 20920 ft | 416 kts | 118° |
| 2026-04-21 02:14 | 20.45458 | -103.95279 | 20752 ft | 414 kts | 118° |
| 2026-04-21 02:14 | 20.44133 | -103.92546 | 20552 ft | 413 kts | 118° |
| 2026-04-21 02:14 | 20.42814 | -103.89828 | 20396 ft | 411 kts | 118° |
| 2026-04-21 02:14 | 20.41501 | -103.87124 | 20220 ft | 410 kts | 118° |
| 2026-04-21 02:15 | 20.40208 | -103.84461 | 20045 ft | 409 kts | 118° |
| 2026-04-21 02:15 | 20.38924 | -103.81819 | 19877 ft | 408 kts | 118° |
| 2026-04-21 02:15 | 20.37597 | -103.79090 | 19698 ft | 406 kts | 118° |
| 2026-04-21 02:15 | 20.36296 | -103.76417 | 19528 ft | 405 kts | 118° |
| 2026-04-21 02:16 | 20.35003 | -103.73758 | 19353 ft | 403 kts | 118° |
| 2026-04-21 02:16 | 20.33712 | -103.71107 | 19185 ft | 402 kts | 118° |
| 2026-04-21 02:16 | 20.32426 | -103.68467 | 19016 ft | 401 kts | 118° |
| 2026-04-21 02:16 | 20.31143 | -103.65834 | 18851 ft | 400 kts | 118° |
| 2026-04-21 02:17 | 20.29861 | -103.63206 | 18676 ft | 398 kts | 118° |
| 2026-04-21 02:17 | 20.28585 | -103.60590 | 18506 ft | 397 kts | 118° |
| 2026-04-21 02:17 | 20.27321 | -103.58000 | 18384 ft | 395 kts | 118° |
| 2026-04-21 02:17 | 20.26063 | -103.55423 | 18295 ft | 395 kts | 118° |
| 2026-04-21 02:18 | 20.24784 | -103.52806 | 18201 ft | 393 kts | 118° |
| 2026-04-21 02:18 | 20.23518 | -103.50215 | 18105 ft | 393 kts | 118° |
| 2026-04-21 02:18 | 20.22268 | -103.47660 | 18007 ft | 395 kts | 118° |
| 2026-04-21 02:18 | 20.20997 | -103.45062 | 17900 ft | 394 kts | 118° |
| 2026-04-21 02:19 | 20.19732 | -103.42476 | 17720 ft | 392 kts | 118° |
| 2026-04-21 02:19 | 20.18472 | -103.39902 | 17535 ft | 391 kts | 118° |
| 2026-04-21 02:19 | 20.17217 | -103.37340 | 17347 ft | 389 kts | 118° |
| 2026-04-21 02:19 | 20.15986 | -103.34829 | 17160 ft | 389 kts | 118° |
| 2026-04-21 02:20 | 20.14737 | -103.32281 | 16970 ft | 387 kts | 118° |
| 2026-04-21 02:20 | 20.13495 | -103.29750 | 16796 ft | 385 kts | 118° |
| 2026-04-21 02:20 | 20.12251 | -103.27215 | 16612 ft | 385 kts | 118° |
| 2026-04-21 02:20 | 20.11011 | -103.24690 | 16429 ft | 384 kts | 118° |
| 2026-04-21 02:21 | 20.09776 | -103.22175 | 16262 ft | 382 kts | 118° |
| 2026-04-21 02:21 | 20.08543 | -103.19665 | 16073 ft | 382 kts | 118° |
| 2026-04-21 02:21 | 20.07311 | -103.17159 | 15893 ft | 380 kts | 118° |
| 2026-04-21 02:21 | 20.06123 | -103.14743 | 15763 ft | 365 kts | 118° |
| 2026-04-21 02:22 | 20.04972 | -103.12404 | 15596 ft | 348 kts | 118° |
| 2026-04-21 02:22 | 20.03998 | -103.10118 | 15430 ft | 329 kts | 108° |
| 2026-04-21 02:22 | 20.03498 | -103.07814 | 15267 ft | 312 kts | 96° |
| 2026-04-21 02:22 | 20.03419 | -103.05569 | 15013 ft | 298 kts | 86° |
| 2026-04-21 02:23 | 20.03522 | -103.03384 | 14938 ft | 298 kts | 87° |
| 2026-04-21 02:23 | 20.03608 | -103.01162 | 14803 ft | 301 kts | 87° |
| 2026-04-21 02:23 | 20.03686 | -102.98944 | 14657 ft | 298 kts | 87° |
| 2026-04-21 02:23 | 20.03762 | -102.96770 | 14522 ft | 296 kts | 87° |
| 2026-04-21 02:24 | 20.03839 | -102.94591 | 14379 ft | 295 kts | 87° |
| 2026-04-21 02:24 | 20.03917 | -102.92399 | 14239 ft | 294 kts | 87° |
| 2026-04-21 02:24 | 20.03994 | -102.90214 | 14090 ft | 294 kts | 87° |
| 2026-04-21 02:24 | 20.04094 | -102.88049 | 13950 ft | 292 kts | 82° |
| 2026-04-21 02:25 | 20.04642 | -102.85987 | 13860 ft | 289 kts | 63° |
| 2026-04-21 02:25 | 20.05719 | -102.84221 | 13853 ft | 290 kts | 52° |
| 2026-04-21 02:25 | 20.06951 | -102.82510 | 13849 ft | 291 kts | 52° |
| 2026-04-21 02:25 | 20.08172 | -102.80795 | 13850 ft | 290 kts | 52° |
| 2026-04-21 02:26 | 20.09387 | -102.79082 | 13849 ft | 290 kts | 52° |
| 2026-04-21 02:26 | 20.10611 | -102.77354 | 13848 ft | 290 kts | 52° |
| 2026-04-21 02:26 | 20.11824 | -102.75639 | 13848 ft | 290 kts | 52° |
| 2026-04-21 02:26 | 20.13041 | -102.73919 | 13847 ft | 290 kts | 52° |
| 2026-04-21 02:27 | 20.14255 | -102.72204 | 13838 ft | 290 kts | 52° |
| 2026-04-21 02:27 | 20.15510 | -102.70533 | 13838 ft | 290 kts | 44° |
| 2026-04-21 02:27 | 20.17074 | -102.69221 | 13838 ft | 288 kts | 28° |
| 2026-04-21 02:27 | 20.18899 | -102.68332 | 13839 ft | 288 kts | 21° |
| 2026-04-21 02:28 | 20.20750 | -102.67510 | 13837 ft | 287 kts | 22° |
| 2026-04-21 02:28 | 20.22583 | -102.66684 | 13839 ft | 288 kts | 22° |
| 2026-04-21 02:28 | 20.24414 | -102.65853 | 13837 ft | 287 kts | 22° |
| 2026-04-21 02:28 | 20.26270 | -102.65011 | 13839 ft | 288 kts | 22° |
| 2026-04-21 02:29 | 20.28114 | -102.64173 | 13841 ft | 287 kts | 22° |
| 2026-04-21 02:29 | 20.29958 | -102.63337 | 13841 ft | 288 kts | 22° |
| 2026-04-21 02:29 | 20.31813 | -102.62554 | 13790 ft | 288 kts | 13° |
| 2026-04-21 02:29 | 20.33775 | -102.62467 | 13539 ft | 285 kts | 347° |
| 2026-04-21 02:30 | 20.35572 | -102.63306 | 13290 ft | 281 kts | 320° |
| 2026-04-21 02:30 | 20.36798 | -102.64875 | 13043 ft | 277 kts | 295° |
| 2026-04-21 02:30 | 20.37249 | -102.66842 | 12911 ft | 268 kts | 274° |
| 2026-04-21 02:30 | 20.37369 | -102.68809 | 12703 ft | 260 kts | 274° |
| 2026-04-21 02:31 | 20.37495 | -102.70652 | 12579 ft | 247 kts | 275° |
| 2026-04-21 02:31 | 20.37623 | -102.72435 | 12397 ft | 236 kts | 275° |
| 2026-04-21 02:31 | 20.37753 | -102.74162 | 12157 ft | 237 kts | 275° |
| 2026-04-21 02:31 | 20.37889 | -102.75951 | 11924 ft | 242 kts | 275° |
| 2026-04-21 02:32 | 20.38025 | -102.77738 | 11624 ft | 239 kts | 275° |
| 2026-04-21 02:32 | 20.38156 | -102.79474 | 11328 ft | 236 kts | 275° |
| 2026-04-21 02:32 | 20.38289 | -102.81233 | 11026 ft | 235 kts | 275° |
| 2026-04-21 02:32 | 20.38416 | -102.82925 | 10894 ft | 227 kts | 275° |
| 2026-04-21 02:33 | 20.38539 | -102.84574 | 10677 ft | 220 kts | 275° |
| 2026-04-21 02:33 | 20.38661 | -102.86196 | 10272 ft | 220 kts | 275° |
| 2026-04-21 02:33 | 20.38782 | -102.87817 | 9884 ft | 218 kts | 275° |
| 2026-04-21 02:33 | 20.38902 | -102.89420 | 9590 ft | 216 kts | 275° |
| 2026-04-21 02:34 | 20.38981 | -102.90484 | 9409 ft | 217 kts | 275° |
| 2026-04-21 02:34 | 20.39100 | -102.92087 | 9127 ft | 216 kts | 275° |
| 2026-04-21 02:34 | 20.39220 | -102.93679 | 8860 ft | 213 kts | 275° |
| 2026-04-21 02:34 | 20.39336 | -102.95251 | 8797 ft | 214 kts | 275° |
| 2026-04-21 02:35 | 20.39454 | -102.96847 | 8788 ft | 217 kts | 275° |
| 2026-04-21 02:35 | 20.39573 | -102.98456 | 8796 ft | 217 kts | 275° |
| 2026-04-21 02:35 | 20.39692 | -103.00055 | 8791 ft | 215 kts | 275° |
| 2026-04-21 02:35 | 20.39878 | -103.01608 | 8809 ft | 215 kts | 283° |
| 2026-04-21 02:36 | 20.40376 | -103.03106 | 8731 ft | 206 kts | 295° |
| 2026-04-21 02:36 | 20.40947 | -103.04405 | 8689 ft | 186 kts | 294° |
| 2026-04-21 02:36 | 20.41469 | -103.05629 | 8507 ft | 176 kts | 294° |
| 2026-04-21 02:36 | 20.41977 | -103.06836 | 8498 ft | 180 kts | 293° |
| 2026-04-21 02:37 | 20.42490 | -103.08062 | 8373 ft | 180 kts | 293° |
| 2026-04-21 02:37 | 20.43001 | -103.09259 | 8082 ft | 176 kts | 293° |
| 2026-04-21 02:37 | 20.43507 | -103.10447 | 7725 ft | 176 kts | 293° |
| 2026-04-21 02:37 | 20.44000 | -103.11614 | 7537 ft | 173 kts | 293° |
| 2026-04-21 02:38 | 20.44497 | -103.12795 | 7629 ft | 176 kts | 293° |
| 2026-04-21 02:38 | 20.45006 | -103.13983 | 7641 ft | 177 kts | 292° |
| 2026-04-21 02:38 | 20.45504 | -103.15173 | 7553 ft | 173 kts | 292° |
| 2026-04-21 02:38 | 20.45996 | -103.16348 | 7373 ft | 173 kts | 292° |
| 2026-04-21 02:39 | 20.46469 | -103.17476 | 7195 ft | 157 kts | 292° |
| 2026-04-21 02:39 | 20.46897 | -103.18497 | 7025 ft | 152 kts | 291° |
| 2026-04-21 02:39 | 20.47331 | -103.19537 | 6863 ft | 153 kts | 291° |
| 2026-04-21 02:39 | 20.47764 | -103.20569 | 6691 ft | 152 kts | 291° |
| 2026-04-21 02:40 | 20.48196 | -103.21603 | 6520 ft | 153 kts | 292° |
| 2026-04-21 02:40 | 20.48625 | -103.22626 | 6343 ft | 153 kts | 292° |
| 2026-04-21 02:40 | 20.49058 | -103.23660 | 6171 ft | 152 kts | 292° |
| 2026-04-21 02:40 | 20.49483 | -103.24674 | 6009 ft | 148 kts | 292° |
| 2026-04-21 02:41 | 20.49914 | -103.25698 | 5845 ft | 151 kts | 293° |
| 2026-04-21 02:41 | 20.50349 | -103.26743 | 5642 ft | 154 kts | 293° |
| 2026-04-21 02:41 | 20.50786 | -103.27791 | 5443 ft | 156 kts | 292° |
| 2026-04-21 02:41 | 20.51228 | -103.28852 | 5167 ft | 155 kts | 293° |
| 2026-04-21 02:42 | 20.51654 | -103.29858 | 5032 ft | 141 kts | 293° |
| 2026-04-21 02:42 | 20.52008 | -103.30701 | 5028 ft | 99 kts | 294° |
| 2026-04-21 02:42 | 20.52209 | -103.31175 | 5032 ft | 47 kts | 294° |
| 2026-04-21 02:42 | 20.52296 | -103.31379 | 5030 ft | 19 kts | 295° |
| 2026-04-21 02:43 | 20.52378 | -103.31489 | 5028 ft | 20 kts | 322° |
| 2026-04-21 02:43 | 20.52473 | -103.31563 | 5029 ft | 8 kts | 324° |
| 2026-04-21 02:43 | 20.52515 | -103.31590 | 5029 ft | 0 kts | 341° |
| 2026-04-21 02:43 | 20.52522 | -103.31592 | 5029 ft | 2 kts | 342° |
| 2026-04-21 02:44 | 20.52544 | -103.31593 | 5029 ft | 4 kts | 5° |
| 2026-04-21 02:44 | 20.52580 | -103.31581 | 5029 ft | 7 kts | 22° |
| 2026-04-21 02:44 | 20.52632 | -103.31558 | 5028 ft | 10 kts | 24° |
| 2026-04-21 02:44 | 20.52701 | -103.31524 | 5028 ft | 12 kts | 25° |
| 2026-04-21 02:45 | 20.52760 | -103.31492 | 5028 ft | 7 kts | 41° |
| 2026-04-21 02:45 | 20.52760 | -103.31440 | 5028 ft | 8 kts | 111° |
| 2026-04-21 02:45 | 20.52731 | -103.31374 | 5028 ft | 11 kts | 115° |
| 2026-04-21 02:45 | 20.52696 | -103.31292 | 5028 ft | 13 kts | 114° |
| 2026-04-21 02:46 | 20.52657 | -103.31197 | 5029 ft | 15 kts | 113° |
| 2026-04-21 02:46 | 20.52612 | -103.31089 | 5029 ft | 17 kts | 114° |
| 2026-04-21 02:46 | 20.52563 | -103.30972 | 5028 ft | 17 kts | 114° |
| 2026-04-21 02:46 | 20.52514 | -103.30855 | 5029 ft | 15 kts | 114° |
| 2026-04-21 02:47 | 20.52468 | -103.30746 | 5029 ft | 17 kts | 114° |
| 2026-04-21 02:47 | 20.52422 | -103.30637 | 5028 ft | 17 kts | 114° |
| 2026-04-21 02:47 | 20.52379 | -103.30534 | 5029 ft | 13 kts | 115° |
| 2026-04-21 02:47 | 20.52351 | -103.30468 | 5029 ft | 7 kts | 109° |
| 2026-04-21 02:48 | 20.52379 | -103.30428 | 5026 ft | 8 kts | 19° |
| 2026-04-21 02:48 | 20.52434 | -103.30410 | 5029 ft | 8 kts | 19° |
| 2026-04-21 02:48 | 20.52453 | -103.30372 | 5029 ft | 6 kts | 90° |
| 2026-04-21 02:48 | 20.52443 | -103.30327 | 5029 ft | 4 kts | 87° |
| 2026-04-21 02:49 | 20.52453 | -103.30314 | 5029 ft | 3 kts | 38° |
| 2026-04-21 02:49 | 20.52478 | -103.30305 | 5029 ft | 5 kts | 19° |
| 2026-04-21 02:49 | 20.52503 | -103.30296 | 5029 ft | 2 kts | 20° |
| 2026-04-21 02:49 | 20.52506 | -103.30295 | 5029 ft | 0 kts | 20° |